sensor_id;sensor_type;location;lat;lon;timestamp;temperature;humidity
9875;DHT22;4976;46.786;7.632;2022-08-04T07:14:15;24.90;1.00
9875;DHT22;4976;46.786;7.632;2022-08-04T07:16:43;25.00;1.00
9875;DHT22;4976;46.786;7.632;2022-08-04T07:19:12;25.10;1.00
9875;DHT22;4976;46.786;7.632;2022-08-04T07:21:39;25.20;1.00
9875;DHT22;4976;46.786;7.632;2022-08-04T07:24:06;25.30;1.00
9875;DHT22;4976;46.786;7.632;2022-08-04T07:26:34;25.50;1.00
9875;DHT22;4976;46.786;7.632;2022-08-04T07:29:01;25.70;1.00
9875;DHT22;4976;46.786;7.632;2022-08-04T07:31:31;25.80;1.00
9875;DHT22;4976;46.786;7.632;2022-08-04T07:33:59;26.00;1.00
9875;DHT22;4976;46.786;7.632;2022-08-04T07:36:27;26.10;1.00
9875;DHT22;4976;46.786;7.632;2022-08-04T07:38:54;26.40;1.00
9875;DHT22;4976;46.786;7.632;2022-08-04T07:41:23;26.60;1.00
9875;DHT22;4976;46.786;7.632;2022-08-04T07:43:50;26.70;1.00
9875;DHT22;4976;46.786;7.632;2022-08-04T07:46:19;26.70;1.00
9875;DHT22;4976;46.786;7.632;2022-08-04T07:48:48;26.80;1.00
9875;DHT22;4976;46.786;7.632;2022-08-04T07:51:15;26.80;1.00
9875;DHT22;4976;46.786;7.632;2022-08-04T07:53:43;26.80;1.00
9875;DHT22;4976;46.786;7.632;2022-08-04T07:56:11;27.00;1.00
9875;DHT22;4976;46.786;7.632;2022-08-04T07:58:39;27.00;1.00
9875;DHT22;4976;46.786;7.632;2022-08-04T08:01:07;27.20;1.00
9875;DHT22;4976;46.786;7.632;2022-08-04T08:03:35;27.20;1.00
9875;DHT22;4976;46.786;7.632;2022-08-04T08:06:05;27.30;1.00
9875;DHT22;4976;46.786;7.632;2022-08-04T08:08:32;27.30;1.00
9875;DHT22;4976;46.786;7.632;2022-08-04T08:11:03;27.50;1.00
9875;DHT22;4976;46.786;7.632;2022-08-04T08:13:30;27.80;1.00
9875;DHT22;4976;46.786;7.632;2022-08-04T08:15:58;27.90;1.00
9875;DHT22;4976;46.786;7.632;2022-08-04T08:18:26;28.00;1.00
9875;DHT22;4976;46.786;7.632;2022-08-04T08:20:53;28.10;1.00
9875;DHT22;4976;46.786;7.632;2022-08-04T08:23:21;28.30;1.00
9875;DHT22;4976;46.786;7.632;2022-08-04T08:25:49;28.40;99.90
9875;DHT22;4976;46.786;7.632;2022-08-04T08:28:16;28.50;99.90
9875;DHT22;4976;46.786;7.632;2022-08-04T08:30:44;28.60;99.90
9875;DHT22;4976;46.786;7.632;2022-08-04T08:33:13;28.60;99.90
9875;DHT22;4976;46.786;7.632;2022-08-04T08:35:47;28.50;99.90
9875;DHT22;4976;46.786;7.632;2022-08-04T08:38:17;28.70;99.90
9875;DHT22;4976;46.786;7.632;2022-08-04T08:40:51;29.00;99.90
9875;DHT22;4976;46.786;7.632;2022-08-04T08:43:34;29.10;99.90
9875;DHT22;4976;46.786;7.632;2022-08-04T08:46:36;29.40;99.90
9875;DHT22;4976;46.786;7.632;2022-08-04T08:52:29;29.60;99.90
9875;DHT22;4976;46.786;7.632;2022-08-04T08:55:21;29.70;99.90
9875;DHT22;4976;46.786;7.632;2022-08-04T08:58:25;29.90;99.90
9875;DHT22;4976;46.786;7.632;2022-08-04T09:01:04;29.90;99.90
9875;DHT22;4976;46.786;7.632;2022-08-04T09:03:56;30.10;99.90
9875;DHT22;4976;46.786;7.632;2022-08-04T09:06:46;30.30;99.90
9875;DHT22;4976;46.786;7.632;2022-08-04T09:09:41;30.60;99.90
9875;DHT22;4976;46.786;7.632;2022-08-04T09:12:14;30.90;99.90
9875;DHT22;4976;46.786;7.632;2022-08-04T09:14:50;31.00;99.90
9875;DHT22;4976;46.786;7.632;2022-08-04T09:17:25;31.40;99.90
9875;DHT22;4976;46.786;7.632;2022-08-04T09:19:58;31.60;99.90
9875;DHT22;4976;46.786;7.632;2022-08-04T09:22:32;31.70;99.90
9875;DHT22;4976;46.786;7.632;2022-08-04T09:25:08;31.70;99.90
9875;DHT22;4976;46.786;7.632;2022-08-04T09:27:45;31.60;99.90
9875;DHT22;4976;46.786;7.632;2022-08-04T09:30:18;31.80;99.90
9875;DHT22;4976;46.786;7.632;2022-08-04T09:32:56;32.00;99.90
9875;DHT22;4976;46.786;7.632;2022-08-04T09:35:32;32.10;99.90
9875;DHT22;4976;46.786;7.632;2022-08-04T09:38:08;32.30;99.90
9875;DHT22;4976;46.786;7.632;2022-08-04T09:40:42;32.60;99.90
9875;DHT22;4976;46.786;7.632;2022-08-04T09:43:19;32.70;99.90
9875;DHT22;4976;46.786;7.632;2022-08-04T09:46:00;32.60;99.90
9875;DHT22;4976;46.786;7.632;2022-08-04T09:48:34;32.90;99.90
9875;DHT22;4976;46.786;7.632;2022-08-04T09:51:10;32.90;99.90
9875;DHT22;4976;46.786;7.632;2022-08-04T09:53:48;33.10;99.90
9875;DHT22;4976;46.786;7.632;2022-08-04T09:56:24;33.00;99.90
9875;DHT22;4976;46.786;7.632;2022-08-04T09:59:04;32.90;99.90
9875;DHT22;4976;46.786;7.632;2022-08-04T10:01:37;32.90;99.90
9875;DHT22;4976;46.786;7.632;2022-08-04T10:04:13;33.20;99.90
9875;DHT22;4976;46.786;7.632;2022-08-04T10:06:57;33.20;99.90
9875;DHT22;4976;46.786;7.632;2022-08-04T10:09:46;33.20;99.90
9875;DHT22;4976;46.786;7.632;2022-08-04T10:12:27;33.40;99.90
9875;DHT22;4976;46.786;7.632;2022-08-04T10:15:05;33.60;99.90
9875;DHT22;4976;46.786;7.632;2022-08-04T10:17:46;33.80;99.90
9875;DHT22;4976;46.786;7.632;2022-08-04T10:20:32;33.60;99.90
9875;DHT22;4976;46.786;7.632;2022-08-04T10:23:11;33.50;99.90
9875;DHT22;4976;46.786;7.632;2022-08-04T10:25:51;33.30;99.90
9875;DHT22;4976;46.786;7.632;2022-08-04T10:28:26;33.50;99.90
9875;DHT22;4976;46.786;7.632;2022-08-04T10:30:58;33.60;99.90
9875;DHT22;4976;46.786;7.632;2022-08-04T10:33:32;33.60;99.90
9875;DHT22;4976;46.786;7.632;2022-08-04T10:36:02;33.50;99.90
9875;DHT22;4976;46.786;7.632;2022-08-04T10:38:36;33.80;99.90
9875;DHT22;4976;46.786;7.632;2022-08-04T10:41:09;33.80;99.90
9875;DHT22;4976;46.786;7.632;2022-08-04T10:43:47;33.50;99.90
9875;DHT22;4976;46.786;7.632;2022-08-04T10:46:17;33.40;99.90
9875;DHT22;4976;46.786;7.632;2022-08-04T10:48:53;33.30;99.90
9875;DHT22;4976;46.786;7.632;2022-08-04T10:51:26;33.20;99.90
9875;DHT22;4976;46.786;7.632;2022-08-04T10:54:01;33.70;99.90
9875;DHT22;4976;46.786;7.632;2022-08-04T10:56:34;34.00;99.90
9875;DHT22;4976;46.786;7.632;2022-08-04T10:59:09;33.90;99.90
9875;DHT22;4976;46.786;7.632;2022-08-04T11:01:39;33.90;99.90
9875;DHT22;4976;46.786;7.632;2022-08-04T11:04:19;33.60;99.90
9875;DHT22;4976;46.786;7.632;2022-08-04T11:06:49;33.40;99.90
9875;DHT22;4976;46.786;7.632;2022-08-04T11:09:18;33.30;99.90
9875;DHT22;4976;46.786;7.632;2022-08-04T11:11:51;33.20;99.90
9875;DHT22;4976;46.786;7.632;2022-08-04T11:14:28;33.60;99.90
9875;DHT22;4976;46.786;7.632;2022-08-04T11:17:00;33.90;99.90
9875;DHT22;4976;46.786;7.632;2022-08-04T11:19:34;34.10;99.90
9875;DHT22;4976;46.786;7.632;2022-08-04T11:22:07;34.50;99.90
9875;DHT22;4976;46.786;7.632;2022-08-04T11:24:43;34.80;99.90
9875;DHT22;4976;46.786;7.632;2022-08-04T11:27:13;34.80;99.90
9875;DHT22;4976;46.786;7.632;2022-08-04T11:29:49;34.10;99.90
9875;DHT22;4976;46.786;7.632;2022-08-04T11:32:19;34.10;99.90
9875;DHT22;4976;46.786;7.632;2022-08-04T11:34:52;34.40;99.90
9875;DHT22;4976;46.786;7.632;2022-08-04T11:37:27;34.80;99.90
9875;DHT22;4976;46.786;7.632;2022-08-04T11:40:08;34.80;99.90
9875;DHT22;4976;46.786;7.632;2022-08-04T11:42:37;34.40;99.90
9875;DHT22;4976;46.786;7.632;2022-08-04T11:45:06;34.30;99.90
9875;DHT22;4976;46.786;7.632;2022-08-04T11:47:42;34.10;99.90
9875;DHT22;4976;46.786;7.632;2022-08-04T11:50:20;33.70;99.90
9875;DHT22;4976;46.786;7.632;2022-08-04T11:52:51;33.80;99.90
9875;DHT22;4976;46.786;7.632;2022-08-04T11:55:20;34.30;99.90
9875;DHT22;4976;46.786;7.632;2022-08-04T11:57:49;34.60;99.90
9875;DHT22;4976;46.786;7.632;2022-08-04T12:00:17;34.90;99.90
9875;DHT22;4976;46.786;7.632;2022-08-04T12:03:00;34.90;99.90
9875;DHT22;4976;46.786;7.632;2022-08-04T12:05:35;34.70;99.90
9875;DHT22;4976;46.786;7.632;2022-08-04T12:08:28;34.50;99.90
9875;DHT22;4976;46.786;7.632;2022-08-04T12:11:07;34.60;99.90
9875;DHT22;4976;46.786;7.632;2022-08-04T12:13:40;34.80;99.90
9875;DHT22;4976;46.786;7.632;2022-08-04T12:16:14;34.90;99.90
9875;DHT22;4976;46.786;7.632;2022-08-04T12:18:48;34.90;99.90
9875;DHT22;4976;46.786;7.632;2022-08-04T12:21:25;34.50;99.90
9875;DHT22;4976;46.786;7.632;2022-08-04T12:23:57;34.40;99.90
9875;DHT22;4976;46.786;7.632;2022-08-04T12:26:30;34.40;99.90
9875;DHT22;4976;46.786;7.632;2022-08-04T12:29:00;34.80;99.90
9875;DHT22;4976;46.786;7.632;2022-08-04T12:31:29;34.90;99.90
9875;DHT22;4976;46.786;7.632;2022-08-04T12:34:00;34.90;99.90
9875;DHT22;4976;46.786;7.632;2022-08-04T12:36:35;34.80;99.90
9875;DHT22;4976;46.786;7.632;2022-08-04T12:39:09;34.80;99.90
9875;DHT22;4976;46.786;7.632;2022-08-04T12:41:41;34.50;99.90
9875;DHT22;4976;46.786;7.632;2022-08-04T12:44:12;34.40;99.90
9875;DHT22;4976;46.786;7.632;2022-08-04T12:46:45;34.20;99.90
9875;DHT22;4976;46.786;7.632;2022-08-04T12:49:14;34.30;99.90
9875;DHT22;4976;46.786;7.632;2022-08-04T12:51:44;34.40;99.90
9875;DHT22;4976;46.786;7.632;2022-08-04T12:54:12;34.50;99.90
9875;DHT22;4976;46.786;7.632;2022-08-04T12:56:41;34.50;99.90
9875;DHT22;4976;46.786;7.632;2022-08-04T12:59:09;34.50;99.90
9875;DHT22;4976;46.786;7.632;2022-08-04T13:01:39;34.40;99.90
9875;DHT22;4976;46.786;7.632;2022-08-04T13:04:12;34.20;99.90
9875;DHT22;4976;46.786;7.632;2022-08-04T13:06:43;34.30;99.90
9875;DHT22;4976;46.786;7.632;2022-08-04T13:09:15;34.30;99.90
9875;DHT22;4976;46.786;7.632;2022-08-04T13:11:48;34.40;99.90
9875;DHT22;4976;46.786;7.632;2022-08-04T13:14:17;34.70;99.90
9875;DHT22;4976;46.786;7.632;2022-08-04T13:16:46;35.00;99.90
9875;DHT22;4976;46.786;7.632;2022-08-04T13:19:13;35.20;99.90
9875;DHT22;4976;46.786;7.632;2022-08-04T13:21:43;35.50;99.90
9875;DHT22;4976;46.786;7.632;2022-08-04T13:24:14;35.30;99.90
9875;DHT22;4976;46.786;7.632;2022-08-04T13:26:55;35.20;99.90
9875;DHT22;4976;46.786;7.632;2022-08-04T13:29:24;35.50;99.90
9875;DHT22;4976;46.786;7.632;2022-08-04T13:31:56;35.40;99.90
9875;DHT22;4976;46.786;7.632;2022-08-04T13:34:25;35.20;99.90
9875;DHT22;4976;46.786;7.632;2022-08-04T13:36:55;35.30;99.90
9875;DHT22;4976;46.786;7.632;2022-08-04T13:39:24;35.40;99.90
9875;DHT22;4976;46.786;7.632;2022-08-04T13:41:54;35.70;99.90
9875;DHT22;4976;46.786;7.632;2022-08-04T13:44:27;36.20;99.90
9875;DHT22;4976;46.786;7.632;2022-08-04T13:46:58;36.10;99.90
9875;DHT22;4976;46.786;7.632;2022-08-04T13:49:25;36.20;99.90
9875;DHT22;4976;46.786;7.632;2022-08-04T13:51:56;36.30;99.90
9875;DHT22;4976;46.786;7.632;2022-08-04T13:54:27;36.40;99.90
9875;DHT22;4976;46.786;7.632;2022-08-04T13:57:07;36.10;99.90
9875;DHT22;4976;46.786;7.632;2022-08-04T13:59:37;35.50;99.90
9875;DHT22;4976;46.786;7.632;2022-08-04T14:02:08;34.90;99.90
9875;DHT22;4976;46.786;7.632;2022-08-04T14:04:42;34.80;99.90
9875;DHT22;4976;46.786;7.632;2022-08-04T14:07:17;34.70;99.90
9875;DHT22;4976;46.786;7.632;2022-08-04T14:09:47;34.70;99.90
9875;DHT22;4976;46.786;7.632;2022-08-04T14:12:14;34.70;99.90
9875;DHT22;4976;46.786;7.632;2022-08-04T14:14:45;34.70;99.90
9875;DHT22;4976;46.786;7.632;2022-08-04T14:17:14;34.60;99.90
9875;DHT22;4976;46.786;7.632;2022-08-04T14:19:50;34.80;99.90
9875;DHT22;4976;46.786;7.632;2022-08-04T14:22:30;34.80;99.90
9875;DHT22;4976;46.786;7.632;2022-08-04T14:25:01;35.10;99.90
9875;DHT22;4976;46.786;7.632;2022-08-04T14:27:41;35.20;99.90
9875;DHT22;4976;46.786;7.632;2022-08-04T14:30:24;35.50;99.90
9875;DHT22;4976;46.786;7.632;2022-08-04T14:33:00;35.60;99.90
9875;DHT22;4976;46.786;7.632;2022-08-04T14:35:29;35.60;99.90
9875;DHT22;4976;46.786;7.632;2022-08-04T14:38:01;35.80;99.90
9875;DHT22;4976;46.786;7.632;2022-08-04T14:40:30;35.90;99.90
9875;DHT22;4976;46.786;7.632;2022-08-04T14:42:58;36.00;99.90
9875;DHT22;4976;46.786;7.632;2022-08-04T14:45:31;36.20;99.90
9875;DHT22;4976;46.786;7.632;2022-08-04T14:47:59;36.30;99.90
9875;DHT22;4976;46.786;7.632;2022-08-04T14:50:38;36.10;99.90
9875;DHT22;4976;46.786;7.632;2022-08-04T14:53:08;35.90;99.90
9875;DHT22;4976;46.786;7.632;2022-08-04T14:55:37;35.80;99.90
9875;DHT22;4976;46.786;7.632;2022-08-04T14:58:05;35.70;99.90
9875;DHT22;4976;46.786;7.632;2022-08-04T15:00:34;35.30;99.90
9875;DHT22;4976;46.786;7.632;2022-08-04T15:03:04;35.40;99.90
9875;DHT22;4976;46.786;7.632;2022-08-04T15:05:33;35.60;99.90
9875;DHT22;4976;46.786;7.632;2022-08-04T15:08:01;35.90;99.90
9875;DHT22;4976;46.786;7.632;2022-08-04T15:10:29;36.10;99.90
9875;DHT22;4976;46.786;7.632;2022-08-04T15:12:57;36.30;99.90
9875;DHT22;4976;46.786;7.632;2022-08-04T15:15:24;36.50;99.90
9875;DHT22;4976;46.786;7.632;2022-08-04T15:17:52;36.40;99.90
9875;DHT22;4976;46.786;7.632;2022-08-04T15:20:20;36.20;99.90
9875;DHT22;4976;46.786;7.632;2022-08-04T15:22:47;36.00;99.90
9875;DHT22;4976;46.786;7.632;2022-08-04T15:25:15;36.00;99.90
9875;DHT22;4976;46.786;7.632;2022-08-04T15:27:47;35.90;99.90
9875;DHT22;4976;46.786;7.632;2022-08-04T15:30:16;36.20;99.90
9875;DHT22;4976;46.786;7.632;2022-08-04T15:32:49;36.50;99.90
9875;DHT22;4976;46.786;7.632;2022-08-04T15:35:23;36.60;99.90
9875;DHT22;4976;46.786;7.632;2022-08-04T15:37:57;36.40;99.90
9875;DHT22;4976;46.786;7.632;2022-08-04T15:40:28;36.10;99.90
9875;DHT22;4976;46.786;7.632;2022-08-04T15:43:12;35.80;99.90
9875;DHT22;4976;46.786;7.632;2022-08-04T15:45:52;35.70;99.90
9875;DHT22;4976;46.786;7.632;2022-08-04T15:48:23;35.50;99.90
9875;DHT22;4976;46.786;7.632;2022-08-04T15:51:10;35.40;99.90
9875;DHT22;4976;46.786;7.632;2022-08-04T15:56:43;35.70;99.90
9875;DHT22;4976;46.786;7.632;2022-08-04T15:59:12;35.60;99.90
9875;DHT22;4976;46.786;7.632;2022-08-04T16:01:40;35.20;99.90
9875;DHT22;4976;46.786;7.632;2022-08-04T16:04:21;34.90;99.90
9875;DHT22;4976;46.786;7.632;2022-08-04T16:06:49;35.00;99.90
9875;DHT22;4976;46.786;7.632;2022-08-04T16:09:25;35.10;99.90
9875;DHT22;4976;46.786;7.632;2022-08-04T16:11:52;35.20;99.90
9875;DHT22;4976;46.786;7.632;2022-08-04T16:14:34;35.40;99.90
9875;DHT22;4976;46.786;7.632;2022-08-04T16:17:15;35.70;99.90
9875;DHT22;4976;46.786;7.632;2022-08-04T16:19:56;35.90;99.90
9875;DHT22;4976;46.786;7.632;2022-08-04T16:22:41;35.80;99.90
9875;DHT22;4976;46.786;7.632;2022-08-04T16:25:42;35.70;99.90
9875;DHT22;4976;46.786;7.632;2022-08-04T16:28:41;35.50;99.90
9875;DHT22;4976;46.786;7.632;2022-08-04T16:31:14;35.10;99.90
9875;DHT22;4976;46.786;7.632;2022-08-04T16:34:12;35.00;99.90
9875;DHT22;4976;46.786;7.632;2022-08-04T16:37:03;34.90;99.90
9875;DHT22;4976;46.786;7.632;2022-08-04T16:39:50;34.80;99.90
9875;DHT22;4976;46.786;7.632;2022-08-04T16:42:45;34.60;99.90
9875;DHT22;4976;46.786;7.632;2022-08-04T16:45:21;34.40;99.90
9875;DHT22;4976;46.786;7.632;2022-08-04T16:48:05;34.30;99.90
9875;DHT22;4976;46.786;7.632;2022-08-04T16:50:48;34.20;99.90
9875;DHT22;4976;46.786;7.632;2022-08-04T16:53:17;34.20;99.90
9875;DHT22;4976;46.786;7.632;2022-08-04T16:55:55;34.00;99.90
9875;DHT22;4976;46.786;7.632;2022-08-04T17:01:53;33.80;99.90
9875;DHT22;4976;46.786;7.632;2022-08-04T17:04:32;33.70;99.90
9875;DHT22;4976;46.786;7.632;2022-08-04T17:07:01;33.70;99.90
9875;DHT22;4976;46.786;7.632;2022-08-04T17:09:29;33.70;99.90
9875;DHT22;4976;46.786;7.632;2022-08-04T17:11:57;33.70;99.90
9875;DHT22;4976;46.786;7.632;2022-08-04T17:14:28;33.90;99.90
9875;DHT22;4976;46.786;7.632;2022-08-04T17:16:58;33.80;99.90
9875;DHT22;4976;46.786;7.632;2022-08-04T17:19:25;33.70;99.90
9875;DHT22;4976;46.786;7.632;2022-08-04T17:21:59;33.60;99.90
9875;DHT22;4976;46.786;7.632;2022-08-04T17:24:27;33.40;99.90
9875;DHT22;4976;46.786;7.632;2022-08-04T17:26:54;33.40;99.90
9875;DHT22;4976;46.786;7.632;2022-08-04T17:29:23;33.30;99.90
9875;DHT22;4976;46.786;7.632;2022-08-04T17:31:54;33.20;99.90
9875;DHT22;4976;46.786;7.632;2022-08-04T17:34:21;33.00;99.90
9875;DHT22;4976;46.786;7.632;2022-08-04T17:36:51;32.80;99.90
9875;DHT22;4976;46.786;7.632;2022-08-04T17:39:20;32.70;99.90
9875;DHT22;4976;46.786;7.632;2022-08-04T17:41:55;32.60;99.90
9875;DHT22;4976;46.786;7.632;2022-08-04T17:44:33;32.50;99.90
9875;DHT22;4976;46.786;7.632;2022-08-04T17:47:06;32.50;99.90
9875;DHT22;4976;46.786;7.632;2022-08-04T17:49:34;32.30;99.90
9875;DHT22;4976;46.786;7.632;2022-08-04T17:52:01;32.10;99.90
9875;DHT22;4976;46.786;7.632;2022-08-04T17:54:31;31.90;99.90
9875;DHT22;4976;46.786;7.632;2022-08-04T17:57:00;31.70;99.90
9875;DHT22;4976;46.786;7.632;2022-08-04T17:59:28;31.70;99.90
9875;DHT22;4976;46.786;7.632;2022-08-04T18:01:58;31.50;99.90
9875;DHT22;4976;46.786;7.632;2022-08-04T18:04:33;31.40;99.90
9875;DHT22;4976;46.786;7.632;2022-08-04T18:07:05;31.20;99.90
9875;DHT22;4976;46.786;7.632;2022-08-04T18:09:34;31.20;99.90
9875;DHT22;4976;46.786;7.632;2022-08-04T18:12:04;31.10;99.90
9875;DHT22;4976;46.786;7.632;2022-08-04T18:14:40;30.90;99.90
9875;DHT22;4976;46.786;7.632;2022-08-04T18:17:08;30.90;99.90
9875;DHT22;4976;46.786;7.632;2022-08-04T18:19:36;31.00;99.90
9875;DHT22;4976;46.786;7.632;2022-08-04T18:22:04;31.00;99.90
9875;DHT22;4976;46.786;7.632;2022-08-04T18:24:34;30.90;99.90
9875;DHT22;4976;46.786;7.632;2022-08-04T18:27:01;30.70;99.90
9875;DHT22;4976;46.786;7.632;2022-08-04T18:29:28;30.50;99.90
9875;DHT22;4976;46.786;7.632;2022-08-04T18:31:55;30.30;99.90
9875;DHT22;4976;46.786;7.632;2022-08-04T18:34:22;30.10;99.90
9875;DHT22;4976;46.786;7.632;2022-08-04T18:36:50;29.30;99.90
9875;DHT22;4976;46.786;7.632;2022-08-04T18:39:17;28.60;99.90
9875;DHT22;4976;46.786;7.632;2022-08-04T18:41:45;28.00;99.90
9875;DHT22;4976;46.786;7.632;2022-08-04T18:44:13;28.00;99.90
9875;DHT22;4976;46.786;7.632;2022-08-04T18:46:40;28.00;99.90
9875;DHT22;4976;46.786;7.632;2022-08-04T18:49:07;27.90;99.90
9875;DHT22;4976;46.786;7.632;2022-08-04T18:51:35;27.90;99.90
9875;DHT22;4976;46.786;7.632;2022-08-04T18:54:03;27.90;99.90
9875;DHT22;4976;46.786;7.632;2022-08-04T18:56:31;27.90;99.90
9875;DHT22;4976;46.786;7.632;2022-08-04T18:59:01;27.70;99.90
9875;DHT22;4976;46.786;7.632;2022-08-04T19:01:28;27.40;99.90
9875;DHT22;4976;46.786;7.632;2022-08-04T19:03:55;27.00;99.90
9875;DHT22;4976;46.786;7.632;2022-08-04T19:06:23;26.90;99.90
9875;DHT22;4976;46.786;7.632;2022-08-04T19:08:50;26.90;99.90
9875;DHT22;4976;46.786;7.632;2022-08-04T19:11:17;26.90;99.90
9875;DHT22;4976;46.786;7.632;2022-08-04T19:13:44;27.00;99.90
9875;DHT22;4976;46.786;7.632;2022-08-04T19:16:12;27.00;99.90
9875;DHT22;4976;46.786;7.632;2022-08-04T19:18:40;26.90;1.00
9875;DHT22;4976;46.786;7.632;2022-08-04T19:21:07;26.80;1.00
9875;DHT22;4976;46.786;7.632;2022-08-04T19:23:34;26.80;99.90
9875;DHT22;4976;46.786;7.632;2022-08-04T19:26:01;26.90;99.90
9875;DHT22;4976;46.786;7.632;2022-08-04T19:28:29;26.90;99.90
9875;DHT22;4976;46.786;7.632;2022-08-04T19:30:57;26.90;99.90
9875;DHT22;4976;46.786;7.632;2022-08-04T19:33:26;26.80;1.00
9875;DHT22;4976;46.786;7.632;2022-08-04T19:35:53;26.80;1.00
9875;DHT22;4976;46.786;7.632;2022-08-04T19:38:20;26.70;1.00
9875;DHT22;4976;46.786;7.632;2022-08-04T19:40:47;26.60;1.00
9875;DHT22;4976;46.786;7.632;2022-08-04T19:43:15;26.70;1.00
9875;DHT22;4976;46.786;7.632;2022-08-04T19:45:42;26.80;1.00
9875;DHT22;4976;46.786;7.632;2022-08-04T19:48:09;26.90;99.90
9875;DHT22;4976;46.786;7.632;2022-08-04T19:50:37;27.00;99.90
9875;DHT22;4976;46.786;7.632;2022-08-04T19:53:05;27.00;99.90
9875;DHT22;4976;46.786;7.632;2022-08-04T19:55:32;27.00;99.90
9875;DHT22;4976;46.786;7.632;2022-08-04T19:58:02;26.90;99.90
9875;DHT22;4976;46.786;7.632;2022-08-04T20:00:30;27.00;99.90
9875;DHT22;4976;46.786;7.632;2022-08-04T20:02:57;27.00;1.00
9875;DHT22;4976;46.786;7.632;2022-08-04T20:05:25;27.00;1.00
9875;DHT22;4976;46.786;7.632;2022-08-04T20:07:53;26.80;1.00
9875;DHT22;4976;46.786;7.632;2022-08-04T20:10:20;26.70;1.00
9875;DHT22;4976;46.786;7.632;2022-08-04T20:12:48;26.70;1.00
9875;DHT22;4976;46.786;7.632;2022-08-04T20:15:15;26.50;1.00
9875;DHT22;4976;46.786;7.632;2022-08-04T20:17:42;26.40;99.90
9875;DHT22;4976;46.786;7.632;2022-08-04T20:20:11;26.20;1.00
9875;DHT22;4976;46.786;7.632;2022-08-04T20:22:38;26.20;1.00
9875;DHT22;4976;46.786;7.632;2022-08-04T20:25:07;26.10;1.00
9875;DHT22;4976;46.786;7.632;2022-08-04T20:27:35;25.90;99.90
9875;DHT22;4976;46.786;7.632;2022-08-04T20:30:04;25.60;99.90
9875;DHT22;4976;46.786;7.632;2022-08-04T20:32:31;25.30;1.00
9875;DHT22;4976;46.786;7.632;2022-08-04T20:34:59;25.10;5.60
9875;DHT22;4976;46.786;7.632;2022-08-04T20:37:26;25.10;1.00
9875;DHT22;4976;46.786;7.632;2022-08-04T20:39:54;25.20;99.90
9875;DHT22;4976;46.786;7.632;2022-08-04T20:42:24;25.30;99.90
9875;DHT22;4976;46.786;7.632;2022-08-04T20:44:51;25.30;99.90
9875;DHT22;4976;46.786;7.632;2022-08-04T20:47:19;25.30;1.00
9875;DHT22;4976;46.786;7.632;2022-08-04T20:49:46;24.90;1.00
9875;DHT22;4976;46.786;7.632;2022-08-04T20:52:13;24.40;1.00
9875;DHT22;4976;46.786;7.632;2022-08-04T20:54:41;24.20;75.70
9875;DHT22;4976;46.786;7.632;2022-08-04T20:57:09;24.20;1.00
9875;DHT22;4976;46.786;7.632;2022-08-04T20:59:38;24.30;75.10
9875;DHT22;4976;46.786;7.632;2022-08-04T21:02:06;24.50;1.00
9875;DHT22;4976;46.786;7.632;2022-08-04T21:04:33;24.60;1.00
9875;DHT22;4976;46.786;7.632;2022-08-04T21:07:05;24.70;99.90
9875;DHT22;4976;46.786;7.632;2022-08-04T21:09:33;24.50;99.90
9875;DHT22;4976;46.786;7.632;2022-08-04T21:12:00;24.50;99.90
9875;DHT22;4976;46.786;7.632;2022-08-04T21:14:28;24.90;1.00
9875;DHT22;4976;46.786;7.632;2022-08-04T21:16:57;25.10;1.00
9875;DHT22;4976;46.786;7.632;2022-08-04T21:19:26;25.20;1.00
9875;DHT22;4976;46.786;7.632;2022-08-04T21:21:55;25.20;24.80
9875;DHT22;4976;46.786;7.632;2022-08-04T21:24:23;25.10;99.90
9875;DHT22;4976;46.786;7.632;2022-08-04T21:26:50;24.80;1.00
9875;DHT22;4976;46.786;7.632;2022-08-04T21:29:18;24.40;1.00
9875;DHT22;4976;46.786;7.632;2022-08-04T21:31:45;24.20;1.00
9875;DHT22;4976;46.786;7.632;2022-08-04T21:34:14;24.10;99.90
9875;DHT22;4976;46.786;7.632;2022-08-04T21:36:42;24.30;1.00
9875;DHT22;4976;46.786;7.632;2022-08-04T21:39:10;24.60;99.90
9875;DHT22;4976;46.786;7.632;2022-08-04T21:41:37;24.90;26.30
9875;DHT22;4976;46.786;7.632;2022-08-04T21:44:05;25.00;1.00
9875;DHT22;4976;46.786;7.632;2022-08-04T21:46:33;25.00;99.90
9875;DHT22;4976;46.786;7.632;2022-08-04T21:49:00;24.90;99.90
9875;DHT22;4976;46.786;7.632;2022-08-04T21:51:31;24.90;74.60
9875;DHT22;4976;46.786;7.632;2022-08-04T21:53:59;24.90;76.10
9875;DHT22;4976;46.786;7.632;2022-08-04T21:56:26;25.20;1.00
9875;DHT22;4976;46.786;7.632;2022-08-04T21:58:53;25.50;1.00
